Time;durP1;ratioP1;P1;durP2;ratioP2;P2;SDS_P1;SDS_P2;PMS_P1;PMS_P2;Temp;Humidity;BMP_temperature;BMP_pressure;BME280_temperature;BME280_humidity;BME280_pressure;Samples;Min_cycle;Max_cycle;Signal;HPM_P1;HPM_P2
2022/09/27 00:00:40;;;;;;;3.17;2.97;;;;;;;11.82;100.00;97957.03;6242711;22;20216;-82
2022/09/27 00:03:08;;;;;;;5.07;3.50;;;;;;;11.75;100.00;97953.81;6215722;23;20209;-81
2022/09/27 00:05:35;;;;;;;3.70;3.40;;;;;;;11.69;100.00;97958.34;6242265;22;20775;-80
2022/09/27 00:08:02;;;;;;;3.77;3.47;;;;;;;11.64;100.00;97961.00;6266001;22;20205;-80
2022/09/27 00:10:29;;;;;;;3.97;3.60;;;;;;;11.60;100.00;97959.13;6215257;23;20537;-80
2022/09/27 00:12:56;;;;;;;3.70;3.40;;;;;;;11.51;100.00;97958.03;6242258;22;20673;-81
2022/09/27 00:15:23;;;;;;;3.33;3.13;;;;;;;11.45;100.00;97955.34;6242280;22;20209;-80
2022/09/27 00:17:51;;;;;;;3.67;3.37;;;;;;;11.44;100.00;97953.72;6242180;22;20206;-80
2022/09/27 00:20:20;;;;;;;4.30;3.70;;;;;;;11.33;100.00;97941.41;6241199;22;20209;-80
2022/09/27 00:22:48;;;;;;;4.17;3.87;;;;;;;11.33;100.00;97948.63;6242658;22;20209;-80
2022/09/27 00:25:15;;;;;;;4.10;3.80;;;;;;;11.31;100.00;97945.41;6215892;23;20724;-79
2022/09/27 00:27:41;;;;;;;3.67;3.40;;;;;;;11.29;100.00;97942.97;6242783;23;20208;-80
2022/09/27 00:30:09;;;;;;;4.30;3.90;;;;;;;11.23;100.00;97933.31;6215291;22;20207;-80
2022/09/27 00:32:36;;;;;;;3.77;3.47;;;;;;;11.16;100.00;97930.06;6243568;23;20212;-81
2022/09/27 00:35:03;;;;;;;3.83;3.43;;;;;;;11.11;100.00;97924.69;6266296;22;20206;-81
2022/09/27 00:37:29;;;;;;;3.93;3.53;;;;;;;11.12;100.00;97930.88;6215793;23;20208;-81
2022/09/27 00:39:56;;;;;;;4.00;3.70;;;;;;;11.09;100.00;97932.22;6242591;22;20544;-80
2022/09/27 00:42:23;;;;;;;3.77;3.40;;;;;;;11.01;100.00;97922.00;6215068;22;20203;-80
2022/09/27 00:44:59;;;;;;;3.93;3.63;;;;;;;10.94;100.00;97924.94;6243125;23;20543;-80
2022/09/27 00:47:34;;;;;;;5.20;4.70;;;;;;;10.89;100.00;97922.22;6242343;23;20258;-80
2022/09/27 00:50:07;;;;;;;4.43;4.03;;;;;;;10.86;100.00;97922.75;6190462;23;20211;-80
2022/09/27 00:52:40;;;;;;;4.33;3.83;;;;;;;10.81;100.00;97912.03;6216208;23;20551;-80
2022/09/27 00:55:14;;;;;;;4.23;3.83;;;;;;;10.74;100.00;97911.44;6242696;22;20259;-82
2022/09/27 00:57:41;;;;;;;4.47;3.80;;;;;;;10.74;100.00;97905.28;6242487;22;20209;-80
2022/09/27 01:00:10;;;;;;;4.13;3.83;;;;;;;10.63;100.00;97903.66;6215754;22;20671;-82
2022/09/27 01:02:39;;;;;;;4.63;4.23;;;;;;;10.57;100.00;97889.41;6242579;22;20266;-83
2022/09/27 01:05:07;;;;;;;4.43;4.13;;;;;;;10.52;100.00;97884.03;6216114;23;20696;-84
2022/09/27 01:07:34;;;;;;;4.27;3.83;;;;;;;10.47;100.00;97881.34;6242368;22;20209;-83
2022/09/27 01:10:01;;;;;;;4.20;3.90;;;;;;;10.51;100.00;97887.78;6241553;22;20204;-86
2022/09/27 01:12:38;;;;;;;4.60;4.20;;;;;;;10.37;100.00;97879.41;6221265;22;20249;-82
2022/09/27 01:15:11;;;;;;;4.10;3.80;;;;;;;10.32;100.00;97875.91;6221103;22;20208;-81
2022/09/27 01:18:02;;;;;;;4.23;3.83;;;;;;;10.24;100.00;97866.50;6273240;22;20690;-81
2022/09/27 01:21:01;;;;;;;4.30;3.90;;;;;;;10.22;100.00;97865.94;6273158;22;20291;-82
2022/09/27 01:23:55;;;;;;;5.17;4.13;;;;;;;10.13;100.00;97862.94;6225969;22;20211;-82
2022/09/27 01:26:34;;;;;;;4.40;3.67;;;;;;;10.16;100.00;97858.97;6205881;22;20210;-80
2022/09/27 01:29:12;;;;;;;4.37;4.07;;;;;;;10.06;100.00;97851.66;6221747;22;20238;-81
2022/09/27 01:31:48;;;;;;;4.53;4.07;;;;;;;10.06;100.00;97842.84;6246399;22;20212;-81
2022/09/27 01:34:23;;;;;;;4.00;3.70;;;;;;;9.97;100.00;97841.72;6246486;22;20192;-81
2022/09/27 01:37:12;;;;;;;4.20;3.90;;;;;;;9.88;100.00;97836.03;6273446;22;20207;-81
2022/09/27 01:39:44;;;;;;;4.10;3.80;;;;;;;9.87;100.00;97837.09;6246569;22;20224;-81
2022/09/27 01:42:44;;;;;;;4.30;4.00;;;;;;;9.80;100.00;97833.84;6273261;22;20595;-81
2022/09/27 01:45:16;;;;;;;3.70;3.43;;;;;;;9.82;100.00;97830.91;6271791;22;20211;-81
2022/09/27 01:48:16;;;;;;;3.87;3.50;;;;;;;9.75;100.00;97815.09;6252832;22;20208;-81
2022/09/27 01:51:03;;;;;;;5.07;3.73;;;;;;;9.80;100.00;97822.34;6224176;22;20648;-80
2022/09/27 01:53:34;;;;;;;3.97;3.67;;;;;;;9.75;100.00;97815.09;6248994;22;20223;-81
2022/09/27 01:56:41;;;;;;;4.40;4.00;;;;;;;9.76;100.00;97816.69;6274818;22;20547;-81
2022/09/27 01:59:28;;;;;;;4.27;3.67;;;;;;;9.73;100.00;97822.56;6224503;22;20310;-81
2022/09/27 02:02:11;;;;;;;4.63;4.00;;;;;;;9.63;100.00;97809.94;6225739;22;20226;-81
2022/09/27 02:05:02;;;;;;;4.30;3.90;;;;;;;9.64;100.00;97813.41;6258276;22;20818;-81
2022/09/27 02:07:38;;;;;;;4.30;3.93;;;;;;;9.65;100.00;97812.38;6208190;22;20204;-81
2022/09/27 02:10:13;;;;;;;4.40;4.00;;;;;;;9.64;100.00;97811.56;6226841;22;20207;-81
2022/09/27 02:13:01;;;;;;;4.30;4.00;;;;;;;9.57;100.00;97818.16;6275293;22;20225;-81
2022/09/27 02:15:33;;;;;;;4.23;3.93;;;;;;;9.51;100.00;97816.53;6222942;22;20212;-83
2022/09/27 02:18:25;;;;;;;3.93;3.60;;;;;;;9.48;100.00;97820.50;6274544;22;20204;-81
2022/09/27 02:20:55;;;;;;;4.00;3.70;;;;;;;9.58;100.00;97801.06;6222862;22;20208;-81
2022/09/27 02:23:39;;;;;;;4.50;3.50;;;;;;;9.49;100.00;97810.63;6217761;23;20205;-82
2022/09/27 02:26:17;;;;;;;4.00;3.70;;;;;;;9.42;100.00;97808.19;6217909;23;20748;-83
2022/09/27 02:29:01;;;;;;;4.20;3.80;;;;;;;9.43;100.00;97806.31;6192998;23;20230;-82
2022/09/27 02:31:37;;;;;;;4.17;3.77;;;;;;;9.48;100.00;97814.34;6194764;23;20236;-80
2022/09/27 02:34:24;;;;;;;4.13;3.73;;;;;;;9.48;100.00;97807.16;6242098;23;20695;-82
2022/09/27 02:36:52;;;;;;;4.20;3.80;;;;;;;9.55;100.00;97813.09;6217585;23;20212;-83
2022/09/27 02:39:19;;;;;;;4.27;3.87;;;;;;;9.58;100.00;97812.56;6243958;22;20212;-80
2022/09/27 02:41:52;;;;;;;4.53;4.13;;;;;;;9.57;100.00;97810.16;6218884;23;20205;-80
2022/09/27 02:44:20;;;;;;;4.43;4.03;;;;;;;9.68;100.00;97807.31;6216484;23;20209;-80
2022/09/27 02:47:01;;;;;;;4.17;3.77;;;;;;;9.71;100.00;97804.09;6217460;23;20205;-81
2022/09/27 02:49:48;;;;;;;4.30;3.90;;;;;;;9.70;100.00;97801.69;6217490;23;20215;-81
2022/09/27 02:52:37;;;;;;;4.03;3.73;;;;;;;9.76;100.00;97806.00;6217518;23;20212;-80
2022/09/27 02:55:14;;;;;;;5.80;4.30;;;;;;;9.77;100.00;97802.28;6217514;23;20263;-80
2022/09/27 02:58:03;;;;;;;4.37;3.87;;;;;;;9.74;100.00;97805.47;6217486;23;20284;-81
2022/09/27 03:01:04;;;;;;;5.10;4.50;;;;;;;9.76;100.00;97797.97;6237489;23;20204;-80
2022/09/27 03:04:24;;;;;;;5.17;4.67;;;;;;;9.75;100.00;97798.25;6243903;23;20738;-80
2022/09/27 03:06:52;;;;;;;4.50;4.10;;;;;;;9.77;100.00;97799.59;6216646;23;20208;-80
2022/09/27 03:09:24;;;;;;;5.17;4.70;;;;;;;9.86;100.00;97789.22;6242170;23;20208;-80
2022/09/27 03:11:51;;;;;;;6.00;5.07;;;;;;;9.85;100.00;97788.41;6216948;23;20209;-79
2022/09/27 03:14:17;;;;;;;5.63;5.03;;;;;;;9.89;100.00;97786.03;6216166;23;20232;-79
2022/09/27 03:17:07;;;;;;;5.30;4.80;;;;;;;9.94;100.00;97791.38;6230997;23;20209;-80
2022/09/27 03:20:03;;;;;;;5.03;4.57;;;;;;;9.96;100.00;97790.06;6242976;23;20205;-80
2022/09/27 03:22:45;;;;;;;5.10;4.70;;;;;;;10.06;100.00;97784.78;6240199;22;20549;-80
2022/09/27 03:25:12;;;;;;;4.77;4.37;;;;;;;10.06;100.00;97782.09;6245708;22;20235;-80
2022/09/27 03:27:39;;;;;;;5.23;4.40;;;;;;;10.09;100.00;97775.41;6246960;22;20257;-79
2022/09/27 03:30:06;;;;;;;4.50;4.10;;;;;;;10.14;100.00;97778.09;6246029;22;20207;-79
2022/09/27 03:32:35;;;;;;;4.40;4.00;;;;;;;10.14;100.00;97778.09;6246750;22;20208;-80
2022/09/27 03:35:26;;;;;;;4.33;3.97;;;;;;;10.12;100.00;97773.00;6273993;22;20226;-80
2022/09/27 03:37:54;;;;;;;5.10;4.40;;;;;;;10.16;100.00;97773.34;6273384;22;20265;-80
2022/09/27 03:40:20;;;;;;;4.80;4.40;;;;;;;10.18;100.00;97771.19;6272893;22;20200;-80
2022/09/27 03:42:49;;;;;;;4.73;4.33;;;;;;;10.16;100.00;97762.63;6246029;22;20233;-80
2022/09/27 03:45:16;;;;;;;4.40;3.97;;;;;;;10.11;100.00;97754.56;6246393;22;20728;-80
2022/09/27 03:47:43;;;;;;;5.60;4.50;;;;;;;10.15;100.00;97753.81;6246279;22;20219;-80
2022/09/27 03:50:10;;;;;;;4.50;4.10;;;;;;;10.09;100.00;97751.31;6220575;22;20248;-78
2022/09/27 03:52:37;;;;;;;4.40;4.00;;;;;;;10.05;100.00;97742.22;6273214;22;20238;-80
2022/09/27 03:55:04;;;;;;;4.70;4.30;;;;;;;10.11;100.00;97738.50;6245967;22;20247;-80
2022/09/27 03:57:31;;;;;;;4.73;4.33;;;;;;;10.17;100.00;97747.41;6273574;22;20200;-80
2022/09/27 04:00:00;;;;;;;4.27;3.90;;;;;;;10.17;100.00;97748.19;6246000;22;20269;-80
2022/09/27 04:02:40;;;;;;;4.60;4.20;;;;;;;10.15;100.00;97744.94;6272901;22;20283;-80
2022/09/27 04:05:26;;;;;;;4.40;4.00;;;;;;;10.15;100.00;97742.25;6273746;22;20212;-80
2022/09/27 04:07:56;;;;;;;4.50;4.10;;;;;;;10.18;100.00;97735.59;6222102;22;20287;-80
2022/09/27 04:10:22;;;;;;;4.33;3.93;;;;;;;10.15;100.00;97740.44;6272764;22;20192;-80
2022/09/27 04:12:49;;;;;;;4.30;3.90;;;;;;;10.18;100.00;97738.28;6230965;22;20204;-80
2022/09/27 04:15:18;;;;;;;4.50;4.10;;;;;;;10.22;100.00;97731.34;6246249;22;20211;-80
2022/09/27 04:17:48;;;;;;;4.90;4.50;;;;;;;10.19;100.00;97732.66;6273350;22;20208;-80
2022/09/27 04:20:33;;;;;;;4.83;4.30;;;;;;;10.20;100.00;97731.59;6273247;22;20196;-79
2022/09/27 04:23:06;;;;;;;5.13;4.73;;;;;;;10.21;100.00;97732.41;6273251;22;20211;-79
2022/09/27 04:25:35;;;;;;;5.20;4.50;;;;;;;10.22;100.00;97726.78;6245733;22;20211;-80
2022/09/27 04:28:17;;;;;;;4.97;4.47;;;;;;;10.29;100.00;97729.22;6244937;22;20212;-80
2022/09/27 04:30:45;;;;;;;4.77;4.27;;;;;;;10.21;100.00;97722.53;6246125;22;20211;-80
2022/09/27 04:33:12;;;;;;;4.47;4.00;;;;;;;10.27;100.00;97723.31;6273275;22;20212;-80
2022/09/27 04:38:59;;;;;;;4.40;4.00;;;;;;;10.21;100.00;97722.53;6245417;22;20647;-80
2022/09/27 04:41:27;;;;;;;4.17;3.87;;;;;;;10.22;100.00;97717.97;6220681;22;20208;-80
2022/09/27 04:43:55;;;;;;;4.40;4.10;;;;;;;10.25;100.00;97723.59;6273026;22;20200;-83
2022/09/27 04:46:30;;;;;;;4.30;4.00;;;;;;;10.20;100.00;97717.41;6270888;22;20199;-80
2022/09/27 04:49:00;;;;;;;4.63;4.23;;;;;;;10.25;100.00;97722.78;6245405;22;20597;-80
2022/09/27 04:51:28;;;;;;;4.40;4.10;;;;;;;10.23;100.00;97712.34;6273435;22;20208;-80
2022/09/27 04:53:56;;;;;;;4.47;4.07;;;;;;;10.31;100.00;97711.81;6246285;22;20187;-80
2022/09/27 04:56:29;;;;;;;5.77;4.10;;;;;;;10.31;100.00;97703.00;6221731;22;20222;-81
2022/09/27 04:58:57;;;;;;;4.53;4.10;;;;;;;10.35;100.00;97704.09;6246688;22;20230;-81
2022/09/27 05:01:24;;;;;;;3.93;3.63;;;;;;;10.44;100.00;97705.97;6246516;22;20262;-81
2022/09/27 05:03:50;;;;;;;3.87;3.57;;;;;;;10.41;100.00;97703.00;6273944;22;20216;-81
2022/09/27 05:06:17;;;;;;;4.13;3.83;;;;;;;10.43;100.00;97712.41;6245990;22;20211;-80
2022/09/27 05:08:44;;;;;;;5.10;4.70;;;;;;;10.38;100.00;97707.03;6246528;22;20204;-81
2022/09/27 05:11:17;;;;;;;5.70;5.20;;;;;;;10.41;100.00;97701.13;6273963;22;20200;-81
2022/09/27 05:14:15;;;;;;;6.40;5.90;;;;;;;10.46;100.00;97705.69;6203675;22;20227;-81
2022/09/27 05:17:02;;;;;;;6.30;5.80;;;;;;;10.48;100.00;97698.22;6224430;22;20240;-81
2022/09/27 05:19:52;;;;;;;5.70;5.20;;;;;;;10.54;100.00;97689.91;6215922;22;20645;-82
2022/09/27 05:22:39;;;;;;;6.17;5.30;;;;;;;10.61;100.00;97676.28;6224880;22;20464;-82
2022/09/27 05:25:06;;;;;;;5.47;4.97;;;;;;;10.65;100.00;97684.56;6248212;22;20227;-82
2022/09/27 05:27:33;;;;;;;5.03;4.50;;;;;;;10.74;100.00;97681.09;6274015;22;20208;-82
2022/09/27 05:30:00;;;;;;;4.73;4.33;;;;;;;10.66;100.00;97683.50;6247805;22;20287;-82
2022/09/27 05:32:42;;;;;;;4.90;4.17;;;;;;;10.72;100.00;97687.81;6232971;22;20223;-82
2022/09/27 05:35:27;;;;;;;4.70;4.30;;;;;;;10.74;100.00;97675.75;6252093;22;20207;-82
2022/09/27 05:37:57;;;;;;;4.40;4.00;;;;;;;10.80;100.00;97671.19;6272831;22;20231;-82
2022/09/27 05:40:28;;;;;;;7.63;4.23;;;;;;;10.93;100.00;97670.66;6245658;22;20203;-82
2022/09/27 05:43:08;;;;;;;10.40;4.83;;;;;;;10.93;100.00;97671.44;6228148;22;20212;-81
2022/09/27 05:45:35;;;;;;;7.13;4.47;;;;;;;10.94;100.00;97669.56;6247644;22;20208;-81
2022/09/27 05:48:04;;;;;;;9.30;4.70;;;;;;;11.01;100.00;97664.75;6221986;22;20266;-83
2022/09/27 05:50:35;;;;;;;7.77;4.57;;;;;;;11.14;100.00;97676.81;6247323;22;20201;-82
2022/09/27 05:53:01;;;;;;;7.43;4.47;;;;;;;11.21;100.00;97662.03;6272774;22;20544;-83
2022/09/27 05:55:29;;;;;;;8.90;5.40;;;;;;;11.33;100.00;97661.75;6221679;22;20451;-81
2022/09/27 05:58:07;;;;;;;5.60;5.00;;;;;;;11.46;100.00;97666.53;6206696;22;20205;-83
2022/09/27 06:00:47;;;;;;;4.97;4.57;;;;;;;11.59;100.00;97659.78;6214214;22;20206;-85
2022/09/27 06:03:34;;;;;;;5.20;4.10;;;;;;;11.70;100.00;97664.06;6273900;22;20209;-84
2022/09/27 06:06:39;;;;;;;4.70;4.30;;;;;;;11.87;100.00;97673.41;6271938;22;20196;-84
2022/09/27 06:09:12;;;;;;;4.57;4.17;;;;;;;11.91;100.00;97663.72;6221752;22;20288;-84
2022/09/27 06:11:40;;;;;;;4.93;4.43;;;;;;;11.95;100.00;97669.34;6274255;22;20212;-87
2022/09/27 06:14:12;;;;;;;4.50;4.10;;;;;;;12.01;100.00;97670.13;6221753;22;20209;-86
2022/09/27 06:16:53;;;;;;;4.43;3.80;;;;;;;12.05;100.00;97658.56;6272248;22;20637;-84
2022/09/27 06:19:23;;;;;;;7.20;6.43;;;;;;;12.01;100.00;97662.06;6270685;22;20190;-85
2022/09/27 06:21:50;;;;;;;7.53;6.83;;;;;;;11.92;100.00;97656.47;6190619;23;20209;-85
2022/09/27 06:24:17;;;;;;;6.50;5.83;;;;;;;11.96;100.00;97664.78;6215494;22;20535;-85
2022/09/27 06:26:45;;;;;;;6.03;4.57;;;;;;;11.91;100.00;97650.31;6191212;23;20205;-86
2022/09/27 06:29:44;;;;;;;9.27;4.13;;;;;;;11.95;100.00;97663.16;6175498;23;20209;-84
2022/09/27 06:32:20;;;;;;;5.27;4.73;;;;;;;11.89;100.00;97668.56;6240832;22;20271;-85
2022/09/27 06:34:54;;;;;;;4.53;4.10;;;;;;;11.93;100.00;97663.47;6240765;23;20208;-85
2022/09/27 06:37:25;;;;;;;6.40;4.30;;;;;;;11.94;100.00;97670.44;6215969;23;20211;-82
2022/09/27 06:39:52;;;;;;;4.93;4.37;;;;;;;11.86;100.00;97671.78;6215272;23;20210;-82
2022/09/27 06:42:39;;;;;;;4.93;4.23;;;;;;;11.91;100.00;97665.59;6242392;22;20258;-81
2022/09/27 06:45:14;;;;;;;5.40;4.33;;;;;;;11.97;100.00;97672.56;6241023;22;20212;-85
2022/09/27 06:48:03;;;;;;;4.93;4.43;;;;;;;12.05;100.00;97679.22;6242813;22;20212;-83
2022/09/27 06:50:47;;;;;;;4.90;4.50;;;;;;;12.14;100.00;97669.50;6241951;22;20271;-81
2022/09/27 06:53:15;;;;;;;5.53;4.93;;;;;;;12.22;100.00;97677.81;6241791;22;20213;-81
2022/09/27 06:55:42;;;;;;;8.33;5.07;;;;;;;12.34;100.00;97672.09;6190387;23;20280;-82
2022/09/27 07:01:15;;;;;;;5.37;4.87;;;;;;;12.56;100.00;97668.97;6224914;23;20216;-82
2022/09/27 07:04:17;;;;;;;6.23;4.67;;;;;;;12.67;100.00;97663.28;6150694;23;20208;-82
2022/09/27 07:06:52;;;;;;;5.63;4.63;;;;;;;12.80;100.00;97664.50;6207854;23;20669;-81
2022/09/27 07:09:22;;;;;;;5.27;4.33;;;;;;;12.94;100.00;97660.09;6241256;23;20205;-81
2022/09/27 07:11:48;;;;;;;6.17;5.20;;;;;;;13.05;100.00;97655.44;6242888;22;20285;-82
2022/09/27 07:14:16;;;;;;;5.50;5.00;;;;;;;13.21;100.00;97654.22;6214939;22;20210;-84
2022/09/27 07:16:44;;;;;;;5.23;4.47;;;;;;;13.36;100.00;97659.44;6240881;23;20596;-82
2022/09/27 07:19:13;;;;;;;5.40;4.63;;;;;;;13.46;100.00;97659.34;6199931;23;20237;-83
2022/09/27 07:21:40;;;;;;;5.07;4.57;;;;;;;13.59;100.00;97677.50;6225996;22;20276;-82
2022/09/27 07:24:06;;;;;;;5.00;4.50;;;;;;;13.60;100.00;97673.72;6245084;22;20662;-82
2022/09/27 07:26:33;;;;;;;5.30;4.90;;;;;;;13.61;100.00;97678.03;6246132;22;20201;-81
2022/09/27 07:29:01;;;;;;;5.30;4.80;;;;;;;13.64;100.00;97682.81;6245651;22;20224;-89
2022/09/27 07:31:29;;;;;;;5.43;4.30;;;;;;;13.59;100.00;97685.56;6246535;22;20193;-87
2022/09/27 07:33:55;;;;;;;4.23;3.83;;;;;;;13.60;100.00;97686.38;6246439;22;20508;-85
2022/09/27 07:36:22;;;;;;;4.53;4.13;;;;;;;13.59;100.00;97692.84;6245634;22;20611;-84
2022/09/27 07:38:49;;;;;;;5.27;4.30;;;;;;;13.55;100.00;97683.72;6246407;22;20689;-86
2022/09/27 07:41:18;;;;;;;4.63;4.23;;;;;;;13.54;100.00;97698.25;6220871;22;20214;-85
2022/09/27 07:43:44;;;;;;;4.97;4.47;;;;;;;13.54;100.00;97688.31;6272039;22;20213;-85
2022/09/27 07:46:13;;;;;;;5.10;4.70;;;;;;;13.56;100.00;97691.53;6245457;22;20214;-86
2022/09/27 07:48:58;;;;;;;5.37;4.87;;;;;;;13.52;100.00;97695.06;6273291;22;20215;-85
2022/09/27 07:51:43;;;;;;;5.07;4.60;;;;;;;13.50;100.00;97700.72;6250755;22;20267;-85
2022/09/27 07:54:26;;;;;;;4.83;4.43;;;;;;;13.47;100.00;97695.13;6271383;22;20574;-85
2022/09/27 07:57:13;;;;;;;5.63;5.13;;;;;;;13.48;100.00;97694.84;6250020;22;20230;-86
2022/09/27 07:59:45;;;;;;;6.20;5.60;;;;;;;13.42;100.00;97697.88;6246372;22;20428;-86
2022/09/27 08:02:16;;;;;;;8.60;6.13;;;;;;;13.37;100.00;97697.91;6270833;22;20284;-86
2022/09/27 08:04:45;;;;;;;8.90;6.00;;;;;;;13.36;100.00;97701.69;6245785;22;20203;-86
2022/09/27 08:07:13;;;;;;;10.43;5.80;;;;;;;13.39;100.00;97703.81;6272936;22;20208;-87
2022/09/27 08:09:42;;;;;;;12.90;6.10;;;;;;;13.33;100.00;97705.75;6246455;22;20209;-86
2022/09/27 08:12:09;;;;;;;11.07;5.83;;;;;;;13.35;100.00;97705.44;6245305;22;20854;-83
2022/09/27 08:14:36;;;;;;;9.50;6.37;;;;;;;13.30;100.00;97711.69;6245826;22;20213;-86
2022/09/27 08:17:11;;;;;;;10.20;7.00;;;;;;;13.15;100.00;97719.91;6245724;22;20213;-87
2022/09/27 08:19:57;;;;;;;8.13;7.00;;;;;;;13.19;100.00;97716.38;6249997;22;20292;-84
2022/09/27 08:22:42;;;;;;;7.00;6.40;;;;;;;13.18;100.00;97730.09;6270803;22;20597;-86
2022/09/27 08:25:42;;;;;;;6.97;6.37;;;;;;;13.26;100.00;97734.03;6252999;22;20205;-87
2022/09/27 08:28:35;;;;;;;8.57;6.50;;;;;;;13.09;100.00;97729.84;6246064;22;20267;-86
2022/09/27 08:31:10;;;;;;;6.70;6.10;;;;;;;13.01;100.00;97733.16;6246523;22;20206;-84
2022/09/27 08:33:37;;;;;;;10.93;7.33;;;;;;;12.98;100.00;97736.38;6246500;22;20523;-85
2022/09/27 08:36:11;;;;;;;9.73;7.20;;;;;;;12.88;100.00;97746.44;6221302;22;20206;-86
2022/09/27 08:38:38;;;;;;;10.63;7.17;;;;;;;12.94;100.00;97748.78;6220640;22;20261;-85
2022/09/27 08:41:08;;;;;;;10.13;7.60;;;;;;;12.90;100.00;97755.81;6234260;22;20204;-84
2022/09/27 08:43:40;;;;;;;8.60;7.40;;;;;;;12.79;100.00;97762.31;6220685;22;20846;-87
2022/09/27 08:46:18;;;;;;;8.80;8.00;;;;;;;12.76;100.00;97766.38;6230605;22;20295;-87
2022/09/27 08:48:49;;;;;;;12.87;8.17;;;;;;;12.82;100.00;97769.84;6245845;22;20208;-85
2022/09/27 08:51:20;;;;;;;10.40;8.50;;;;;;;12.84;100.00;97770.34;6246284;22;20193;-84
2022/09/27 08:54:05;;;;;;;10.63;7.90;;;;;;;12.93;100.00;97773.25;6246163;22;20696;-85
2022/09/27 08:56:33;;;;;;;11.00;8.27;;;;;;;12.96;100.00;97784.25;6220766;22;20207;-86
2022/09/27 08:59:06;;;;;;;7.83;6.47;;;;;;;13.13;100.00;97773.94;6248160;22;20360;-84
2022/09/27 09:01:33;;;;;;;6.43;5.33;;;;;;;13.31;100.00;97771.66;6248661;22;20230;-84
2022/09/27 09:04:06;;;;;;;3.70;2.73;;;;;;;13.24;100.00;97782.75;6249391;22;20726;-85
2022/09/27 09:06:54;;;;;;;2.97;2.20;;;;;;;12.93;100.00;97779.44;6223442;22;20203;-84
2022/09/27 09:09:53;;;;;;;3.37;2.13;;;;;;;12.96;100.00;97786.16;6234386;22;20296;-83
2022/09/27 09:12:46;;;;;;;2.80;1.70;;;;;;;13.05;100.00;97771.84;6247658;22;20212;-84
2022/09/27 09:15:53;;;;;;;2.10;1.80;;;;;;;13.30;100.00;97772.75;6247895;22;20264;-84
2022/09/27 09:18:30;;;;;;;1.73;1.60;;;;;;;13.45;100.00;97775.28;6226628;22;20287;-86
2022/09/27 09:21:23;;;;;;;1.67;1.23;;;;;;;13.73;100.00;97785.25;6246905;22;20602;-83
2022/09/27 09:23:56;;;;;;;1.63;1.50;;;;;;;13.89;100.00;97775.16;6247392;22;20212;-83
2022/09/27 09:26:42;;;;;;;1.90;1.80;;;;;;;14.03;100.00;97773.38;6274055;22;20205;-83
2022/09/27 09:29:08;;;;;;;1.60;1.50;;;;;;;14.22;100.00;97770.75;6274144;22;20263;-83
2022/09/27 09:32:04;;;;;;;2.57;1.63;;;;;;;14.38;100.00;97761.38;6247272;22;20217;-85
2022/09/27 09:34:46;;;;;;;2.13;1.30;;;;;;;14.67;100.00;97761.28;6272447;22;20203;-83
2022/09/27 09:37:18;;;;;;;2.60;2.03;;;;;;;14.91;100.00;97770.09;6246782;22;20211;-84
2022/09/27 09:39:51;;;;;;;2.70;2.50;;;;;;;15.11;100.00;97769.00;6222184;22;20210;-84
2022/09/27 09:42:25;;;;;;;3.83;2.10;;;;;;;15.26;100.00;97774.13;6219322;22;20219;-87
2022/09/27 09:45:27;;;;;;;1.90;1.80;;;;;;;15.46;100.00;97770.31;6271714;22;20215;-85
2022/09/27 09:47:54;;;;;;;1.40;1.30;;;;;;;15.62;100.00;97777.09;6259894;22;20228;-84
2022/09/27 09:50:26;;;;;;;1.60;1.50;;;;;;;15.65;100.00;97774.59;6272819;22;20214;-87
2022/09/27 09:53:03;;;;;;;1.33;1.23;;;;;;;15.66;100.00;97761.91;6219928;22;20217;-83
2022/09/27 09:55:34;;;;;;;1.60;1.50;;;;;;;15.94;100.00;97768.13;6221086;22;20630;-83
2022/09/27 09:58:22;;;;;;;2.07;1.03;;;;;;;16.16;100.00;97763.63;6246420;22;20648;-84
2022/09/27 10:00:56;;;;;;;1.20;1.10;;;;;;;16.34;100.00;97747.59;6247237;22;20204;-86
2022/09/27 10:03:23;;;;;;;2.40;1.60;;;;;;;16.60;100.00;97756.81;6246485;22;20205;-84
2022/09/27 10:05:50;;;;;;;1.70;1.60;;;;;;;16.84;100.00;97754.66;6247009;22;20218;-84
2022/09/27 10:08:20;;;;;;;1.60;1.50;;;;;;;17.23;100.00;97766.72;6220865;22;20234;-85
2022/09/27 10:10:53;;;;;;;0.90;0.90;;;;;;;17.56;100.00;97755.34;6246218;22;20206;-84
2022/09/27 10:13:44;;;;;;;3.33;3.03;;;;;;;17.89;100.00;97745.03;6226310;22;20207;-85
2022/09/27 10:16:13;;;;;;;3.10;2.80;;;;;;;18.24;97.81;97745.16;6246141;22;20288;-84
2022/09/27 10:18:41;;;;;;;4.20;1.30;;;;;;;18.41;91.76;97731.63;6247744;22;20200;-85
2022/09/27 10:21:18;;;;;;;3.20;1.23;;;;;;;18.82;88.44;97734.75;6249235;22;20215;-83
2022/09/27 10:24:11;;;;;;;1.17;1.07;;;;;;;19.15;76.55;97729.63;6247935;22;20581;-83
2022/09/27 10:27:04;;;;;;;2.13;1.00;;;;;;;19.39;76.55;97725.63;6274731;22;20711;-86
2022/09/27 10:29:35;;;;;;;0.90;0.90;;;;;;;19.47;74.70;97733.78;6273676;22;20245;-84
2022/09/27 10:32:26;;;;;;;0.60;0.60;;;;;;;19.77;74.42;97724.59;6222266;22;20694;-81
2022/09/27 10:35:28;;;;;;;1.20;0.70;;;;;;;19.80;71.29;97731.28;6272177;22;20246;-83
2022/09/27 10:38:21;;;;;;;0.70;0.70;;;;;;;19.40;74.88;97725.31;6246540;22;20220;-84
2022/09/27 10:40:55;;;;;;;0.70;0.70;;;;;;;19.34;74.02;97721.16;6222324;22;20539;-84
2022/09/27 10:43:33;;;;;;;1.13;0.80;;;;;;;19.41;72.83;97715.25;6273596;22;20291;-83
2022/09/27 10:46:26;;;;;;;0.80;0.80;;;;;;;19.39;75.40;97726.41;6266763;22;20569;-84
2022/09/27 10:49:28;;;;;;;0.73;0.73;;;;;;;19.56;72.19;97715.53;6246448;22;20231;-84
2022/09/27 10:52:07;;;;;;;1.73;0.90;;;;;;;19.54;73.50;97720.50;6239669;22;20598;-83
2022/09/27 10:54:39;;;;;;;1.80;0.80;;;;;;;19.53;73.59;97726.25;6246559;22;20603;-84
2022/09/27 10:57:23;;;;;;;0.70;0.70;;;;;;;19.20;74.64;97724.03;6245682;22;20223;-90
2022/09/27 10:59:53;;;;;;;1.07;0.77;;;;;;;18.93;71.76;97710.81;6273525;22;20208;-82
2022/09/27 11:02:34;;;;;;;0.90;0.60;;;;;;;19.11;70.04;97711.59;6245521;22;20209;-83
2022/09/27 11:05:13;;;;;;;0.90;0.70;;;;;;;19.01;68.98;97709.22;6222679;22;20536;-82
2022/09/27 11:07:52;;;;;;;0.73;0.70;;;;;;;19.14;70.23;97708.22;6246544;22;20205;-82
2022/09/27 11:10:26;;;;;;;0.70;0.70;;;;;;;18.96;70.64;97695.81;6196733;22;20540;-82
2022/09/27 11:13:15;;;;;;;1.00;0.90;;;;;;;19.08;71.68;97687.81;6247887;22;20192;-84
2022/09/27 11:16:21;;;;;;;1.00;0.80;;;;;;;18.57;72.10;97684.00;6221643;22;20259;-84
2022/09/27 11:19:02;;;;;;;0.83;0.60;;;;;;;18.29;73.68;97682.66;6271442;22;20546;-82
2022/09/27 11:21:54;;;;;;;0.80;0.80;;;;;;;17.66;75.04;97683.91;6245773;22;20264;-84
2022/09/27 11:24:30;;;;;;;0.70;0.63;;;;;;;17.25;80.54;97691.47;6245569;22;25701;-82
2022/09/27 11:27:20;;;;;;;1.07;0.80;;;;;;;17.00;84.34;97685.56;6221731;22;20303;-83
2022/09/27 11:29:53;;;;;;;1.20;0.87;;;;;;;16.74;87.00;97687.28;6246085;22;20212;-82
2022/09/27 11:33:16;;;;;;;0.90;0.70;;;;;;;16.57;91.45;97698.72;6245898;22;20200;-82
2022/09/27 11:35:58;;;;;;;0.80;0.80;;;;;;;16.02;100.00;97708.00;6246352;22;20287;-82
2022/09/27 11:38:50;;;;;;;0.70;0.70;;;;;;;16.29;97.25;97692.56;6220623;22;20204;-82
2022/09/27 11:41:36;;;;;;;1.27;0.80;;;;;;;16.20;94.99;97704.38;6246076;22;20200;-82
2022/09/27 11:44:43;;;;;;;1.00;0.77;;;;;;;16.08;100.00;97712.22;6245723;22;20235;-83
2022/09/27 11:47:16;;;;;;;0.87;0.70;;;;;;;16.21;97.06;97706.00;6247012;22;20203;-87
2022/09/27 11:49:46;;;;;;;1.83;0.90;;;;;;;16.24;100.00;97716.19;6247422;22;20254;-89
2022/09/27 11:52:37;;;;;;;0.67;0.60;;;;;;;16.34;92.03;97707.06;6246020;22;20204;-89
2022/09/27 11:55:17;;;;;;;0.43;0.40;;;;;;;16.56;81.58;97707.16;6246685;22;20302;-91
2022/09/27 11:57:46;;;;;;;0.83;0.40;;;;;;;16.41;86.08;97704.78;6246493;22;20238;-91
2022/09/27 12:00:23;;;;;;;0.50;0.40;;;;;;;16.04;84.65;97703.13;6221057;22;20680;-89
2022/09/27 12:03:38;;;;;;;1.00;0.40;;;;;;;16.07;85.92;97705.22;6224778;22;20321;-90
2022/09/27 12:06:11;;;;;;;0.67;0.40;;;;;;;15.86;93.40;97700.19;6231862;22;20210;-89
2022/09/27 12:08:43;;;;;;;0.40;0.40;;;;;;;16.02;94.64;97721.50;6271969;22;20220;-89
2022/09/27 12:11:22;;;;;;;1.23;0.60;;;;;;;15.96;92.07;97712.72;6246254;22;20588;-91
2022/09/27 12:14:08;;;;;;;0.93;0.40;;;;;;;16.28;86.10;97707.19;6246752;22;20211;-90
2022/09/27 12:16:36;;;;;;;0.70;0.60;;;;;;;16.47;84.32;97711.69;6221112;22;20636;-89